首页
METAR-TAF:

METAR-TAF

机场 :

贝鲁特, 黎巴嫩

纬度: 33-49N, 经度: 035-29E, 海拔: 29米

当前天气观测

该预报发布于20分钟前的20:00 UTC
风速4节,风向东转东南
温度 18°C
湿度 68%
气压 1012 hPa
能见度10公里或以上
1500米以下无云,无积雨云

METAR: OLBA 142000Z 12004KT CAVOK 18/12 Q1012 NOSIG

时间: 22:20 (20:20 UTC)

预报

该预报发布于4小时和20分钟前的16:00 UTC
预报有效从14日的 18点(UTC)到 15日的 24点(UTC)
风速5节,风向南转南东
能見度: 8000
散云层高于2800英尺
散云层高于7000英尺
几率 40% :
短暂存在
从 14日的 18点(UTC)到 15日的 06点(UTC)
小雨
几率 30% :
短暂存在
从 14日的 18点(UTC)到 15日的 06点(UTC)
风速5节,风向南转南东,有时为15节阵风
少量云层高于2000英尺, 积雨云.
多云层高于2500英尺
雷暴, 小雨
成为
从 15日的 06点(UTC)到 15日的 08点(UTC)
风速10节,风向西
少量云层高于2600英尺
散云层高于7000英尺
几率 30%
从 15日的 06点(UTC)到 15日的 12点(UTC)
小雨
成为
从 15日的 18点(UTC)到 15日的 20点(UTC)
风速5节,风向
多云层高于3000英尺

TAF: OLBA 141600Z 1418/1524 15005KT 8000 SCT028 SCT070 PROB40 TEMPO 1418/1506 -RA PROB30 TEMPO 1418/1506 16005G15KT -TSRA FEW020CB BKN025 BECMG 1506/1508 28010KT FEW026 SCT070 PROB30 1506/15124 -RA BECMG 1518/1520 17005KT BKN030

超过4000个机场的气象观测和天气预报(METAR&TAF报告)。

可查询的气象台以黄色和红色小点在地图上表示。

将鼠标移到小点上方,可查看气象台名称。

然后点击查看天气观测和预报。

如需切换地图:点击带黑十字的绿色按钮放大地图;点击带横线的绿色按钮缩小地图;或者点击绿色箭头查看邻近地区的地图。


METAR-TAF: